Yorkana, Pennsylvania
Current Conditions -  °F | °C
As of 1:56 PM on Tuesday 21 Oct 2014 (Local Time) from KMDT Reporting Station
Broken Clouds Broken Clouds  
Wind Chill: 17°   Ceiling: 4300
Heat Index: 17°   Visibility: 10mi
Dew Point:   Wind: 6mph
Humidity: 60%   Direction: 290°WNW
Pressure: 29.83"   Gusts: NA
Location:  40.0152°N, 76.5974°W
Report Text: KMDT 211756Z 29005KT 10SM BKN043 17/09 A2983 RMK AO2 SLP102 T01720094 10172 20100 58014
Loading
Personal Weather Stations






























Interactive Weather Map
Tropical Storm Tracking
New forecast layout! Learn more

10-Day Weather Forecast

Advertisements
Track Severe Weather on mobile